createdAt,value
2022-07-27T00:03:23.738Z,17.32
2022-07-27T00:08:27.662Z,17.20
2022-07-27T00:13:31.922Z,17.14
2022-07-27T00:18:35.342Z,17.08
2022-07-27T00:23:38.839Z,16.98
2022-07-27T00:28:42.256Z,16.92
2022-07-27T00:33:46.166Z,16.86
2022-07-27T00:38:49.686Z,16.78
2022-07-27T00:43:58.731Z,16.68
2022-07-27T00:49:02.281Z,16.63
2022-07-27T00:54:05.804Z,16.66
2022-07-27T00:59:13.275Z,16.65
2022-07-27T01:04:17.090Z,16.62
2022-07-27T01:09:39.654Z,16.55
2022-07-27T01:14:43.682Z,16.41
2022-07-27T01:19:48.328Z,16.35
2022-07-27T01:24:51.950Z,16.22
2022-07-27T01:29:55.465Z,16.06
2022-07-27T01:34:58.883Z,15.96
2022-07-27T01:40:02.346Z,15.85
2022-07-27T01:45:07.270Z,15.75
2022-07-27T01:50:11.862Z,15.57
2022-07-27T01:55:15.600Z,15.46
2022-07-27T02:00:19.245Z,15.41
2022-07-27T02:05:22.915Z,15.33
2022-07-27T02:10:26.442Z,15.25
2022-07-27T02:15:38.882Z,15.20
2022-07-27T02:20:46.803Z,15.16
2022-07-27T02:25:54.478Z,15.15
2022-07-27T02:30:57.869Z,15.12
2022-07-27T02:36:01.554Z,15.05
2022-07-27T02:41:05.066Z,14.99
2022-07-27T02:46:08.653Z,14.97
2022-07-27T02:51:12.215Z,14.96
2022-07-27T02:56:15.605Z,14.96
2022-07-27T03:01:19.065Z,14.97
2022-07-27T03:06:22.543Z,14.94
2022-07-27T03:11:25.960Z,14.92
2022-07-27T03:16:29.374Z,14.92
2022-07-27T03:21:32.883Z,14.88
2022-07-27T03:26:36.265Z,14.85
2022-07-27T03:31:39.807Z,14.85
2022-07-27T03:36:44.952Z,14.96
2022-07-27T03:41:48.249Z,15.07
2022-07-27T03:46:51.695Z,15.09
2022-07-27T03:51:55.069Z,15.14
2022-07-27T03:56:58.625Z,15.20
2022-07-27T04:02:02.098Z,15.27
2022-07-27T04:07:05.557Z,15.34
2022-07-27T04:12:09.074Z,15.45
2022-07-27T04:17:12.845Z,15.57
2022-07-27T04:22:36.053Z,15.64
2022-07-27T04:27:40.410Z,15.67
2022-07-27T04:32:43.764Z,15.72
2022-07-27T04:37:58.875Z,15.77
2022-07-27T04:43:06.740Z,15.74
2022-07-27T04:48:12.072Z,15.74
2022-07-27T04:53:17.039Z,15.81
2022-07-27T04:58:20.813Z,15.91
2022-07-27T05:03:24.476Z,16.00
2022-07-27T05:08:28.814Z,16.01
2022-07-27T05:13:32.327Z,16.10
2022-07-27T05:18:36.615Z,16.19
2022-07-27T05:23:39.962Z,16.21
2022-07-27T05:28:44.013Z,16.27
2022-07-27T05:33:49.305Z,16.27
2022-07-27T05:38:55.353Z,16.41
2022-07-27T05:43:58.750Z,16.61
2022-07-27T05:49:02.493Z,16.76
2022-07-27T05:54:06.092Z,16.83
2022-07-27T05:59:10.058Z,16.78
2022-07-27T06:04:14.774Z,16.82
2022-07-27T06:09:18.565Z,17.04
2022-07-27T06:14:22.002Z,17.14
2022-07-27T06:19:25.721Z,17.22
2022-07-27T06:24:39.885Z,17.32
2022-07-27T06:29:43.503Z,17.43
2022-07-27T06:34:46.921Z,17.57
2022-07-27T06:39:51.359Z,17.70
2022-07-27T06:44:55.184Z,17.81
2022-07-27T06:49:58.800Z,17.98
2022-07-27T06:55:02.215Z,18.20
2022-07-27T07:00:07.605Z,18.41
2022-07-27T07:05:10.994Z,18.46
2022-07-27T07:10:14.586Z,18.59
2022-07-27T07:15:18.433Z,18.72
2022-07-27T07:20:22.869Z,18.76
2022-07-27T07:25:27.022Z,18.88
2022-07-27T07:30:31.034Z,18.93
2022-07-27T07:35:34.647Z,19.08
2022-07-27T07:40:44.047Z,19.25
2022-07-27T07:45:52.056Z,19.61
2022-07-27T07:50:56.376Z,19.67
2022-07-27T07:56:00.389Z,20.02
2022-07-27T08:01:04.329Z,20.17
2022-07-27T08:06:08.541Z,20.13
2022-07-27T08:11:11.954Z,20.34
2022-07-27T08:16:15.624Z,20.68
2022-07-27T08:21:19.600Z,20.58
2022-07-27T08:26:23.423Z,20.86
2022-07-27T08:31:51.545Z,20.85
2022-07-27T08:36:50.329Z,20.91
2022-07-27T08:41:55.465Z,20.75
2022-07-27T08:47:02.795Z,20.53
2022-07-27T08:52:09.449Z,20.21
2022-07-27T08:57:12.993Z,20.44
2022-07-27T09:02:16.953Z,21.00
2022-07-27T09:07:32.111Z,21.02
2022-07-27T09:12:35.925Z,20.82
2022-07-27T09:17:48.617Z,20.71
2022-07-27T09:22:54.943Z,20.79
2022-07-27T09:27:59.912Z,21.26
2022-07-27T09:33:06.862Z,21.23
2022-07-27T09:38:25.069Z,21.69
2022-07-27T09:44:20.207Z,21.55
2022-07-27T09:48:54.820Z,21.26
2022-07-27T09:54:09.214Z,21.70
2022-07-27T09:59:19.893Z,21.58
2022-07-27T10:04:25.230Z,21.90
2022-07-27T10:09:31.122Z,22.14
2022-07-27T10:14:35.448Z,21.88
2022-07-27T10:19:52.290Z,21.63
2022-07-27T10:25:01.822Z,21.20
2022-07-27T10:30:07.088Z,21.33
2022-07-27T10:35:35.596Z,21.51
2022-07-27T10:40:39.611Z,21.51
2022-07-27T10:46:00.843Z,21.74
2022-07-27T10:51:09.077Z,21.40
2022-07-27T10:56:12.536Z,21.15
2022-07-27T11:01:17.276Z,21.18
2022-07-27T11:06:32.918Z,21.28
2022-07-27T11:11:39.211Z,21.63
2022-07-27T11:16:54.756Z,21.82
2022-07-27T11:22:04.550Z,22.09
2022-07-27T11:27:17.185Z,22.49
2022-07-27T11:32:22.558Z,22.75
2022-07-27T11:37:26.279Z,22.52
2022-07-27T11:42:40.138Z,22.28
2022-07-27T11:47:43.994Z,22.28
2022-07-27T11:53:01.584Z,22.50
2022-07-27T11:58:05.692Z,22.68
2022-07-27T12:03:32.247Z,22.73
2022-07-27T12:08:50.866Z,22.82
2022-07-27T12:13:59.484Z,22.94
2022-07-27T12:19:03.021Z,23.07
2022-07-27T12:24:07.596Z,23.21
2022-07-27T12:29:13.750Z,23.03
2022-07-27T12:34:17.371Z,22.85
2022-07-27T12:39:29.449Z,23.00
2022-07-27T12:44:39.338Z,22.90
2022-07-27T12:49:46.446Z,22.77
2022-07-27T12:54:50.268Z,22.62
2022-07-27T12:59:53.949Z,22.69
2022-07-27T13:04:57.403Z,22.51
2022-07-27T13:10:02.992Z,22.34
2022-07-27T13:15:09.558Z,22.61
2022-07-27T13:20:15.636Z,22.93
2022-07-27T13:25:19.371Z,23.03
2022-07-27T13:30:23.287Z,23.05
2022-07-27T13:35:27.557Z,23.36
2022-07-27T13:40:31.026Z,23.51
2022-07-27T13:45:42.216Z,23.50
2022-07-27T13:50:47.077Z,23.17
2022-07-27T13:55:52.636Z,23.07
2022-07-27T14:00:56.179Z,22.72
2022-07-27T14:05:59.871Z,22.54
2022-07-27T14:11:03.715Z,22.47
2022-07-27T14:16:09.223Z,22.54
2022-07-27T14:21:13.083Z,22.68
2022-07-27T14:26:16.814Z,22.99
2022-07-27T14:31:22.174Z,23.24
2022-07-27T14:36:25.887Z,23.35
2022-07-27T14:41:29.485Z,23.01
2022-07-27T14:46:32.956Z,22.61
2022-07-27T14:51:36.937Z,22.53
2022-07-27T14:56:40.355Z,22.49
2022-07-27T15:01:44.133Z,22.56
2022-07-27T15:06:47.606Z,22.48
2022-07-27T15:11:51.005Z,22.42
2022-07-27T15:16:55.731Z,22.39
2022-07-27T15:21:59.167Z,22.33
2022-07-27T15:27:02.729Z,22.21
2022-07-27T15:32:09.548Z,22.17
2022-07-27T15:37:13.294Z,22.13
2022-07-27T15:42:16.700Z,22.34
2022-07-27T15:47:20.121Z,23.32
2022-07-27T15:52:23.639Z,23.62
2022-07-27T15:57:27.008Z,23.59
2022-07-27T16:02:30.773Z,24.35
2022-07-27T16:07:41.628Z,24.13
2022-07-27T16:12:45.693Z,24.24
2022-07-27T16:17:49.309Z,23.54
2022-07-27T16:22:52.795Z,22.71
2022-07-27T16:27:56.442Z,22.63
2022-07-27T16:33:02.626Z,22.46
2022-07-27T16:38:06.138Z,22.45
2022-07-27T16:43:09.655Z,22.97
2022-07-27T16:48:13.348Z,24.05
2022-07-27T16:53:17.528Z,23.72
2022-07-27T16:58:21.020Z,23.08
2022-07-27T17:03:24.540Z,22.60
2022-07-27T17:08:28.128Z,22.17
2022-07-27T17:13:34.253Z,21.87
2022-07-27T17:18:40.506Z,21.69
2022-07-27T17:23:44.543Z,21.51
2022-07-27T17:28:48.060Z,21.58
2022-07-27T17:33:51.765Z,21.47
2022-07-27T17:38:55.503Z,21.04
2022-07-27T17:44:00.118Z,20.88
2022-07-27T17:49:03.786Z,20.77
2022-07-27T17:54:07.344Z,20.66
2022-07-27T17:59:35.973Z,20.52
2022-07-27T18:04:39.392Z,20.32
2022-07-27T18:09:43.314Z,19.98
2022-07-27T18:15:05.377Z,19.73
2022-07-27T18:20:11.026Z,19.51
2022-07-27T18:25:14.762Z,19.40
2022-07-27T18:30:18.867Z,19.25
2022-07-27T18:35:22.410Z,19.12
2022-07-27T18:40:26.288Z,18.97
2022-07-27T18:45:34.667Z,18.84
2022-07-27T18:50:40.637Z,18.73
2022-07-27T18:55:45.180Z,18.67
2022-07-27T19:00:49.132Z,18.57
2022-07-27T19:05:54.729Z,18.52
2022-07-27T19:10:58.494Z,18.47
2022-07-27T19:16:01.991Z,18.41
2022-07-27T19:21:05.852Z,18.29
2022-07-27T19:26:10.479Z,18.15
2022-07-27T19:31:23.446Z,18.03
2022-07-27T19:36:27.867Z,18.01
2022-07-27T19:41:32.187Z,17.97
2022-07-27T19:46:36.192Z,17.88
2022-07-27T19:51:40.142Z,17.85
2022-07-27T19:56:43.860Z,17.86
2022-07-27T20:01:47.635Z,17.88
2022-07-27T20:06:51.049Z,17.90
2022-07-27T20:12:00.010Z,17.88
2022-07-27T20:17:06.191Z,17.88
2022-07-27T20:22:09.763Z,17.87
2022-07-27T20:27:13.763Z,17.82
2022-07-27T20:32:17.484Z,17.78
2022-07-27T20:37:21.021Z,17.74
2022-07-27T20:42:24.482Z,17.71
2022-07-27T20:47:34.094Z,17.70
2022-07-27T20:52:39.786Z,17.62
2022-07-27T20:57:43.462Z,17.53
2022-07-27T21:02:47.139Z,17.50
2022-07-27T21:07:50.701Z,17.46
2022-07-27T21:12:54.018Z,17.44
2022-07-27T21:17:57.632Z,17.47
2022-07-27T21:23:27.387Z,17.50
2022-07-27T21:28:30.978Z,17.52
2022-07-27T21:33:39.564Z,17.52
2022-07-27T21:38:43.553Z,17.53
2022-07-27T21:43:46.895Z,17.51
2022-07-27T21:48:51.032Z,17.46
2022-07-27T21:53:54.423Z,17.42
2022-07-27T21:58:57.810Z,17.38
2022-07-27T22:04:02.349Z,17.34
2022-07-27T22:09:06.792Z,17.33
2022-07-27T22:14:10.343Z,17.28
2022-07-27T22:19:14.548Z,17.22
2022-07-27T22:24:18.095Z,17.17
2022-07-27T22:29:21.777Z,17.13
2022-07-27T22:34:25.188Z,17.11
2022-07-27T22:39:29.120Z,17.08
2022-07-27T22:44:32.629Z,17.00
2022-07-27T22:49:37.690Z,16.95
2022-07-27T22:54:42.256Z,16.95
2022-07-27T22:59:45.740Z,16.95
2022-07-27T23:04:49.192Z,16.85
2022-07-27T23:09:52.771Z,16.80
2022-07-27T23:15:00.598Z,16.73
2022-07-27T23:20:05.274Z,16.67
2022-07-27T23:25:10.022Z,16.64
2022-07-27T23:30:18.582Z,16.64
2022-07-27T23:35:22.068Z,16.65
2022-07-27T23:40:26.114Z,16.64
2022-07-27T23:45:29.674Z,16.67
2022-07-27T23:50:33.099Z,16.70
2022-07-27T23:55:36.535Z,16.69
